Time;durP1;ratioP1;P1;durP2;ratioP2;P2;SDS_P1;SDS_P2;PMS_P1;PMS_P2;Temp;Humidity;BMP_temperature;BMP_pressure;BME280_temperature;BME280_humidity;BME280_pressure;Samples;Min_cycle;Max_cycle;Signal;HPM_P1;HPM_P2
2022/01/07 00:00:27;;;;;;;23.53;9.70;;;-3273.70;70.00;;;;;;5014499;28;20052;-92
2022/01/07 00:02:55;;;;;;;30.07;10.40;;;-3273.70;70.20;;;;;;5008750;28;20038;-89
2022/01/07 00:05:23;;;;;;;26.53;11.20;;;-3273.60;70.30;;;;;;5010937;28;20409;-92
2022/01/07 00:07:49;;;;;;;32.27;12.80;;;-3273.50;70.50;;;;;;5008862;28;20026;-91
2022/01/07 00:10:16;;;;;;;;;;;-3273.50;70.60;;;;;;5019817;28;20563;-91
2022/01/07 00:12:42;;;;;;;30.15;12.05;;;-3273.50;70.70;;;;;;5014043;28;19909;-92
2022/01/07 00:15:09;;;;;;;35.63;14.70;;;-3273.50;70.50;;;;;;5004052;28;20079;-92
2022/01/07 00:17:34;;;;;;;33.10;12.63;;;-3273.40;70.60;;;;;;5014011;28;20481;-91
2022/01/07 00:20:00;;;;;;;;;;;-3273.40;70.70;;;;;;5017736;28;20063;-91
2022/01/07 00:22:26;;;;;;;24.47;10.43;;;-3273.40;70.80;;;;;;5014722;28;19917;-92
2022/01/07 00:24:52;;;;;;;;;;;-3273.30;70.50;;;;;;5008065;28;20022;-90
2022/01/07 00:27:17;;;;;;;30.40;11.27;;;-3273.30;70.60;;;;;;5006088;28;19920;-90
2022/01/07 00:29:43;;;;;;;;;;;-3273.20;70.50;;;;;;5011644;28;20478;-91
2022/01/07 00:32:08;;;;;;;30.67;10.50;;;-3273.10;70.70;;;;;;5029665;28;19917;-92
2022/01/07 00:34:34;;;;;;;;;;;-3273.00;70.60;;;;;;5013548;28;20021;-92
2022/01/07 00:36:59;;;;;;;22.83;9.47;;;-3273.00;70.70;;;;;;5011942;28;19909;-91
2022/01/07 00:39:25;;;;;;;;;;;-3272.90;70.60;;;;;;5004700;28;20056;-91
2022/01/07 00:41:50;;;;;;;27.63;10.57;;;-3272.80;70.80;;;;;;5010955;28;19917;-92
2022/01/07 00:44:16;;;;;;;;;;;-3272.80;70.70;;;;;;5032575;28;20041;-92
2022/01/07 00:46:42;;;;;;;50.33;20.93;;;-3272.70;70.90;;;;;;5019055;28;20007;-92
2022/01/07 00:49:08;;;;;;;;;;;-3272.80;70.80;;;;;;5005893;28;20030;-90
2022/01/07 00:51:33;;;;;;;19.73;8.50;;;-3272.70;71.00;;;;;;5021618;28;19983;-92
2022/01/07 00:53:59;;;;;;;;;;;-3272.80;71.00;;;;;;5016470;28;20018;-91
2022/01/07 00:56:24;;;;;;;29.67;11.17;;;-3272.80;71.10;;;;;;5050494;28;19910;-92
2022/01/07 00:58:50;;;;;;;;;;;-3272.80;71.00;;;;;;5002802;28;20077;-88
2022/01/07 01:01:15;;;;;;;31.00;11.63;;;-3272.90;71.20;;;;;;5018529;28;20321;-91
2022/01/07 01:03:41;;;;;;;;;;;-3272.90;71.10;;;;;;5009672;28;20068;-91
2022/01/07 01:06:07;;;;;;;20.97;7.97;;;-3272.90;71.20;;;;;;5013065;28;20281;-91
2022/01/07 01:08:32;;;;;;;;;;;-3272.90;71.10;;;;;;5019231;28;20037;-92
2022/01/07 01:10:58;;;;;;;26.93;9.30;;;-3273.00;71.30;;;;;;5009261;28;20061;-92
2022/01/07 01:13:23;;;;;;;;;;;-3272.90;71.20;;;;;;5023648;28;20461;-92
2022/01/07 01:15:49;;;;;;;23.93;11.40;;;-3272.90;71.40;;;;;;5024303;28;19912;-90
2022/01/07 01:18:15;;;;;;;;;;;-3273.00;71.30;;;;;;5020187;28;20021;-91
2022/01/07 01:20:41;;;;;;;29.77;10.77;;;-3273.00;71.40;;;;;;5016468;28;19909;-92
2022/01/07 01:23:06;;;;;;;;;;;-3272.90;71.20;;;;;;5014373;28;20069;-92
2022/01/07 01:25:32;;;;;;;23.77;10.07;;;-3272.90;71.30;;;;;;5018181;28;19917;-91
2022/01/07 01:27:58;;;;;;;;;;;-3272.80;71.20;;;;;;5024296;28;20032;-93
2022/01/07 01:30:27;;;;;;;28.83;10.97;;;-3272.70;71.40;;;;;;5024193;28;19917;-92
2022/01/07 01:32:54;;;;;;;31.60;11.23;;;-3272.70;71.30;;;;;;5024169;28;20033;-91
2022/01/07 01:35:20;;;;;;;37.57;12.87;;;-3272.60;71.40;;;;;;5004419;28;20048;-91
2022/01/07 01:37:50;;;;;;;33.43;13.00;;;-3272.50;71.60;;;;;;5016039;28;20036;-91
2022/01/07 01:40:18;;;;;;;33.63;13.13;;;-3272.50;71.70;;;;;;5014723;28;20022;-91
2022/01/07 01:42:44;;;;;;;32.70;12.57;;;-3272.40;71.80;;;;;;5016855;28;20052;-92
2022/01/07 01:45:11;;;;;;;35.33;12.43;;;-3272.40;71.90;;;;;;5020617;28;20021;-92
2022/01/07 01:47:37;;;;;;;30.97;12.50;;;-3272.30;72.00;;;;;;5011383;28;20018;-92
2022/01/07 01:50:08;;;;;;;37.37;12.50;;;-3272.30;72.00;;;;;;5024849;28;20037;-92
2022/01/07 01:52:34;;;;;;;26.60;12.03;;;-3272.30;72.10;;;;;;5025185;28;20080;-90
2022/01/07 01:55:00;;;;;;;34.40;12.00;;;-3272.20;72.20;;;;;;5010474;28;20052;-91
2022/01/07 01:57:26;;;;;;;;;;;-3272.20;72.20;;;;;;5018995;28;20029;-92
2022/01/07 01:59:51;;;;;;;28.23;10.70;;;-3272.20;72.30;;;;;;5020102;28;20372;-91
2022/01/07 02:02:17;;;;;;;;;;;-3272.20;72.00;;;;;;5024591;28;20021;-92
2022/01/07 02:04:42;;;;;;;33.57;11.90;;;-3272.10;72.10;;;;;;5012827;28;19952;-92
2022/01/07 02:07:09;;;;;;;;;;;-3272.00;71.90;;;;;;5032010;28;20027;-92
2022/01/07 02:09:38;;;;;;;36.03;10.90;;;-3272.00;72.00;;;;;;5022256;28;19937;-91
2022/01/07 02:12:05;;;;;;;43.57;12.83;;;-3271.90;71.80;;;;;;5012478;28;20028;-91
2022/01/07 02:14:31;;;;;;;41.20;13.70;;;-3271.80;72.00;;;;;;5010371;28;20037;-91
2022/01/07 02:17:10;;;;;;;;;;;-3271.70;72.10;;;;;;5029554;28;20036;-92
2022/01/07 02:19:39;;;;;;;27.53;10.90;;;-3271.70;72.20;;;;;;5013704;28;19993;-92
2022/01/07 02:22:05;;;;;;;28.67;11.57;;;-3271.70;72.00;;;;;;5013817;28;20030;-91
2022/01/07 02:24:31;;;;;;;23.50;10.03;;;-3271.60;72.10;;;;;;5023790;28;20035;-88
2022/01/07 02:26:57;;;;;;;27.87;9.43;;;-3271.50;72.20;;;;;;5021026;28;20026;-91
2022/01/07 02:29:23;;;;;;;28.53;10.87;;;-3271.50;72.30;;;;;;5014517;28;20025;-91
2022/01/07 02:31:49;;;;;;;;;;;-3271.50;72.40;;;;;;5018553;28;20022;-91
2022/01/07 02:34:15;;;;;;;36.03;11.97;;;-3271.50;72.50;;;;;;5012395;28;19912;-92
2022/01/07 02:36:41;;;;;;;;;;;-3271.40;72.20;;;;;;5023194;28;20045;-91
2022/01/07 02:39:06;;;;;;;27.60;11.27;;;-3271.40;72.30;;;;;;5027532;28;19984;-91
2022/01/07 02:41:32;;;;;;;35.03;11.13;;;-3271.30;72.20;;;;;;5024832;28;20065;-91
2022/01/07 02:43:57;;;;;;;;;;;-3271.20;72.30;;;;;;5026460;28;20044;-92
2022/01/07 02:46:23;;;;;;;32.77;11.03;;;-3271.20;72.40;;;;;;5022266;28;19904;-92
2022/01/07 02:48:48;;;;;;;;;;;-3271.20;72.20;;;;;;5013791;28;20018;-92
2022/01/07 02:51:16;;;;;;;26.50;10.40;;;-3271.10;72.30;;;;;;5009900;28;19967;-91
2022/01/07 02:53:42;;;;;;;34.17;11.97;;;-3271.00;72.20;;;;;;5014857;28;20034;-92
2022/01/07 02:56:09;;;;;;;28.63;11.97;;;-3271.00;72.30;;;;;;5002038;28;20022;-92
2022/01/07 02:58:35;;;;;;;27.53;12.33;;;-3271.00;72.40;;;;;;4990575;28;20026;-91
2022/01/07 03:01:00;;;;;;;35.73;11.43;;;-3270.90;72.50;;;;;;4991388;28;20529;-89
2022/01/07 03:03:26;;;;;;;31.13;10.90;;;-3270.80;72.60;;;;;;4984544;28;20030;-91
2022/01/07 03:05:51;;;;;;;;;;;-3270.80;72.60;;;;;;4989223;28;20025;-90
2022/01/07 03:08:17;;;;;;;30.90;12.03;;;-3270.80;72.70;;;;;;4999631;28;19913;-91
2022/01/07 03:10:42;;;;;;;;;;;-3270.80;72.40;;;;;;4991724;28;20391;-91
2022/01/07 03:13:09;;;;;;;34.93;12.57;;;-3270.80;72.50;;;;;;4990290;28;19948;-91
2022/01/07 03:15:37;;;;;;;30.83;12.40;;;-3270.70;72.30;;;;;;4993838;28;20060;-91
2022/01/07 03:18:07;;;;;;;41.50;15.87;;;-3270.60;72.40;;;;;;4999412;28;20061;-90
2022/01/07 03:20:38;;;;;;;36.70;14.57;;;-3270.60;72.50;;;;;;4987168;28;20491;-91
2022/01/07 03:23:09;;;;;;;41.40;14.50;;;-3270.60;72.60;;;;;;4994317;28;20398;-91
2022/01/07 03:25:35;;;;;;;51.53;15.53;;;-3270.50;72.60;;;;;;5000890;28;20032;-90
2022/01/07 03:28:02;;;;;;;43.73;15.27;;;-3270.50;72.70;;;;;;4998403;28;20022;-89
2022/01/07 03:30:29;;;;;;;44.00;15.87;;;-3270.50;72.70;;;;;;5000338;28;20018;-91
2022/01/07 03:32:55;;;;;;;48.33;17.50;;;-3270.50;72.70;;;;;;4992543;28;20033;-90
2022/01/07 03:35:20;;;;;;;;;;;-3270.40;72.70;;;;;;4993693;28;20346;-91
2022/01/07 03:37:48;;;;;;;39.57;15.57;;;-3270.40;72.80;;;;;;4991954;28;19909;-91
2022/01/07 03:40:14;;;;;;;37.83;15.03;;;-3270.40;72.60;;;;;;4991763;28;20037;-90
2022/01/07 03:42:40;;;;;;;36.70;15.00;;;-3270.40;72.60;;;;;;4986116;28;20391;-89
2022/01/07 03:45:07;;;;;;;39.10;15.20;;;-3270.30;72.70;;;;;;4992978;28;20030;-90
2022/01/07 03:47:33;;;;;;;46.60;15.10;;;-3270.30;72.70;;;;;;4995689;28;20025;-92
2022/01/07 03:49:58;;;;;;;48.50;16.67;;;-3270.30;72.80;;;;;;4990684;28;20153;-91
2022/01/07 03:52:24;;;;;;;47.53;15.60;;;-3270.30;72.80;;;;;;5017713;28;20026;-92
2022/01/07 03:54:50;;;;;;;45.83;16.70;;;-3270.30;72.80;;;;;;5020829;28;20040;-90
2022/01/07 03:57:17;;;;;;;35.07;14.67;;;-3270.20;72.80;;;;;;5020718;28;20060;-90
2022/01/07 03:59:43;;;;;;;44.80;16.30;;;-3270.20;72.90;;;;;;5019421;28;20037;-91
2022/01/07 04:02:08;;;;;;;40.90;13.90;;;-3270.20;72.90;;;;;;5019664;28;20107;-90
2022/01/07 04:04:34;;;;;;;;;;;-3270.20;72.90;;;;;;5020458;28;20033;-90
2022/01/07 04:07:00;;;;;;;38.40;15.07;;;-3270.20;73.00;;;;;;5037531;28;19916;-90
2022/01/07 04:09:26;;;;;;;40.17;16.47;;;-3270.20;72.80;;;;;;5020594;28;20017;-90
2022/01/07 04:11:52;;;;;;;;;;;-3270.10;72.80;;;;;;5053049;28;20081;-92
2022/01/07 04:14:18;;;;;;;50.00;18.17;;;-3270.10;72.90;;;;;;5053460;28;19916;-91
2022/01/07 04:16:43;;;;;;;47.57;18.37;;;-3270.10;72.70;;;;;;5019957;28;20025;-91
2022/01/07 04:19:09;;;;;;;;;;;-3270.00;72.80;;;;;;5019650;28;20025;-91
2022/01/07 04:21:35;;;;;;;28.07;12.53;;;-3270.00;72.90;;;;;;5037633;28;19916;-90
2022/01/07 04:24:00;;;;;;;;;;;-3270.10;72.70;;;;;;5038014;28;20034;-90
2022/01/07 04:26:26;;;;;;;28.00;14.77;;;-3270.00;72.80;;;;;;5053722;28;19909;-90
2022/01/07 04:28:51;;;;;;;;;;;-3270.00;72.70;;;;;;5054092;28;20036;-89
2022/01/07 04:31:17;;;;;;;39.70;14.33;;;-3270.00;72.80;;;;;;5052472;28;19909;-90
2022/01/07 04:33:42;;;;;;;40.50;14.13;;;-3270.00;72.70;;;;;;5053056;28;20061;-89
2022/01/07 04:36:08;;;;;;;;;;;-3270.00;72.80;;;;;;5052831;28;20037;-91
2022/01/07 04:38:34;;;;;;;41.43;14.87;;;-3270.00;72.90;;;;;;5053450;28;19945;-92
2022/01/07 04:40:59;;;;;;;52.30;16.40;;;-3270.00;72.70;;;;;;5020342;28;20025;-90
2022/01/07 04:43:25;;;;;;;46.23;15.50;;;-3270.00;72.80;;;;;;5036261;28;20144;-90
2022/01/07 04:45:51;;;;;;;;;;;-3269.90;72.80;;;;;;5021514;28;20383;-91
2022/01/07 04:48:17;;;;;;;25.20;10.83;;;-3269.90;72.90;;;;;;5021342;28;20007;-90
2022/01/07 04:50:43;;;;;;;34.07;13.67;;;-3269.80;72.70;;;;;;5004271;28;20282;-91
2022/01/07 04:53:09;;;;;;;38.57;14.50;;;-3269.80;72.80;;;;;;5022773;28;20034;-91
2022/01/07 04:55:38;;;;;;;;;;;-3269.80;72.90;;;;;;5014290;28;20034;-91
2022/01/07 04:58:10;;;;;;;39.50;13.83;;;-3269.70;73.00;;;;;;4987815;28;19905;-91
2022/01/07 05:00:36;;;;;;;33.57;14.53;;;-3269.70;72.80;;;;;;4989412;28;20759;-90
2022/01/07 05:03:02;;;;;;;45.60;17.63;;;-3269.70;72.90;;;;;;4981476;28;20272;-91
2022/01/07 05:05:28;;;;;;;48.03;17.57;;;-3269.70;72.90;;;;;;4987381;28;20034;-91
2022/01/07 05:07:54;;;;;;;;;;;-3269.70;73.00;;;;;;5021616;28;20269;-90
2022/01/07 05:10:20;;;;;;;43.43;16.70;;;-3269.70;73.00;;;;;;4994127;28;20400;-91
2022/01/07 05:12:46;;;;;;;33.80;16.10;;;-3269.60;72.80;;;;;;4992874;28;20022;-91
2022/01/07 05:15:13;;;;;;;43.90;15.77;;;-3269.60;72.90;;;;;;4997141;28;20098;-91
2022/01/07 05:17:40;;;;;;;32.13;17.43;;;-3269.60;73.00;;;;;;4998343;28;20077;-92
2022/01/07 05:20:06;;;;;;;47.23;17.07;;;-3269.50;73.00;;;;;;4991307;28;20630;-91
2022/01/07 05:22:32;;;;;;;38.87;17.07;;;-3269.60;73.10;;;;;;4995108;28;20313;-92
2022/01/07 05:24:57;;;;;;;;;;;-3269.60;73.20;;;;;;5003804;28;20668;-91
2022/01/07 05:27:23;;;;;;;44.60;21.43;;;-3269.60;73.20;;;;;;4993757;28;19909;-91
2022/01/07 05:29:49;;;;;;;56.13;24.53;;;-3269.60;73.00;;;;;;5036551;28;20106;-91
2022/01/07 05:32:14;;;;;;;;;;;-3269.60;73.00;;;;;;4995249;28;20025;-91
2022/01/07 05:34:42;;;;;;;44.93;18.33;;;-3269.60;73.10;;;;;;4996554;28;20378;-91
2022/01/07 05:37:10;;;;;;;56.13;20.00;;;-3269.50;72.90;;;;;;4996349;28;20034;-91
2022/01/07 05:39:36;;;;;;;62.50;22.33;;;-3269.50;73.00;;;;;;4990581;28;20277;-90
2022/01/07 05:42:02;;;;;;;53.63;21.43;;;-3269.50;73.00;;;;;;4993666;28;20359;-90
2022/01/07 05:44:27;;;;;;;49.77;19.53;;;-3269.50;73.10;;;;;;4994801;28;20062;-90
2022/01/07 05:46:53;;;;;;;53.27;19.53;;;-3269.50;73.10;;;;;;5024435;28;20026;-91
2022/01/07 05:49:18;;;;;;;;;;;-3269.60;73.20;;;;;;5006311;28;20021;-92
2022/01/07 05:51:44;;;;;;;40.73;17.17;;;-3269.60;73.30;;;;;;5002636;28;19917;-92
2022/01/07 05:54:10;;;;;;;51.00;18.87;;;-3269.70;73.10;;;;;;5002925;28;20080;-91
2022/01/07 05:56:36;;;;;;;;;;;-3269.70;73.10;;;;;;4996628;28;20023;-91
2022/01/07 05:59:02;;;;;;;39.13;13.63;;;-3269.70;73.20;;;;;;4998985;28;19910;-92
2022/01/07 06:01:27;;;;;;;44.87;14.20;;;-3269.70;73.00;;;;;;4988720;28;20281;-91
2022/01/07 06:03:53;;;;;;;;;;;-3269.70;73.00;;;;;;4993755;28;20804;-90
2022/01/07 06:06:19;;;;;;;32.53;12.13;;;-3269.60;73.10;;;;;;4988033;28;20004;-91
2022/01/07 06:08:44;;;;;;;35.83;14.97;;;-3269.60;73.00;;;;;;5024948;28;20030;-91
2022/01/07 06:11:10;;;;;;;;;;;-3269.60;73.00;;;;;;5036672;28;20291;-90
2022/01/07 06:13:36;;;;;;;27.57;12.17;;;-3269.60;73.20;;;;;;4992548;28;19931;-89
2022/01/07 06:16:02;;;;;;;37.37;15.07;;;-3269.60;73.10;;;;;;5032874;28;20024;-93
2022/01/07 06:18:28;;;;;;;39.53;16.33;;;-3269.60;73.10;;;;;;5001402;28;20293;-90
2022/01/07 06:20:54;;;;;;;42.47;14.97;;;-3269.60;73.20;;;;;;4994784;28;20025;-90
2022/01/07 06:23:20;;;;;;;40.83;16.77;;;-3269.60;73.20;;;;;;4996338;28;20022;-89
2022/01/07 06:25:49;;;;;;;44.83;16.97;;;-3269.60;73.30;;;;;;4993169;28;20383;-86
2022/01/07 06:28:16;;;;;;;32.50;13.37;;;-3269.60;73.30;;;;;;4989960;28;20303;-85
2022/01/07 06:31:19;;;;;;;38.80;15.53;;;-3269.60;73.30;;;;;;4985496;28;20335;-86
2022/01/07 06:33:45;;;;;;;43.80;16.37;;;-3269.60;73.40;;;;;;4993137;28;20265;-86
2022/01/07 06:36:10;;;;;;;;;;;-3269.70;73.40;;;;;;4987190;28;20761;-85
2022/01/07 06:38:36;;;;;;;45.73;15.07;;;-3269.70;73.50;;;;;;5014471;28;20375;-84
2022/01/07 06:41:05;;;;;;;39.33;15.93;;;-3269.70;73.20;;;;;;4992775;28;20022;-85
2022/01/07 06:43:31;;;;;;;41.47;16.87;;;-3269.70;73.20;;;;;;4984861;28;20033;-84
2022/01/07 06:45:59;;;;;;;44.13;17.47;;;-3269.70;73.30;;;;;;4988352;28;20113;-85
2022/01/07 06:48:24;;;;;;;43.13;18.63;;;-3269.70;73.40;;;;;;4989690;28;20046;-84
2022/01/07 06:50:50;;;;;;;;;;;-3269.70;73.40;;;;;;5002832;28;20293;-87
2022/01/07 06:53:15;;;;;;;33.30;12.03;;;-3269.80;73.50;;;;;;5027057;28;19913;-90
2022/01/07 06:55:41;;;;;;;30.60;13.93;;;-3269.80;73.30;;;;;;5005270;28;20078;-86
2022/01/07 06:58:07;;;;;;;45.00;16.60;;;-3269.70;73.30;;;;;;5010768;28;20064;-88
2022/01/07 07:00:32;;;;;;;40.07;15.73;;;-3269.80;73.40;;;;;;5029321;28;20107;-88
2022/01/07 07:02:58;;;;;;;;;;;-3269.80;73.40;;;;;;5006696;28;20030;-88
2022/01/07 07:05:26;;;;;;;32.53;14.83;;;-3269.80;73.50;;;;;;5053462;28;19939;-89
2022/01/07 07:07:52;;;;;;;39.90;14.43;;;-3269.80;73.30;;;;;;5022522;28;20064;-88
2022/01/07 07:10:18;;;;;;;40.63;14.60;;;-3269.80;73.30;;;;;;5002991;28;20022;-88
2022/01/07 07:12:43;;;;;;;;;;;-3269.70;73.30;;;;;;5016392;28;20025;-88
2022/01/07 07:15:09;;;;;;;45.47;15.87;;;-3269.70;73.40;;;;;;5040255;28;19948;-88
2022/01/07 07:17:34;;;;;;;;;;;-3269.70;73.30;;;;;;5017266;28;20056;-90
2022/01/07 07:20:00;;;;;;;39.43;15.57;;;-3269.80;73.40;;;;;;5048973;28;19909;-91
2022/01/07 07:22:26;;;;;;;44.90;18.63;;;-3269.80;73.20;;;;;;5014279;28;20025;-90
2022/01/07 07:24:52;;;;;;;38.90;19.10;;;-3269.80;73.30;;;;;;5023458;28;20028;-89
2022/01/07 07:27:19;;;;;;;57.03;19.60;;;-3269.80;73.40;;;;;;5025451;28;20025;-87
2022/01/07 07:29:45;;;;;;;61.07;21.33;;;-3269.80;73.40;;;;;;5022470;28;20021;-89
2022/01/07 07:32:11;;;;;;;71.77;28.93;;;-3269.80;73.40;;;;;;5018656;28;20646;-88
2022/01/07 07:37:02;;;;;;;63.67;26.27;;;-3270.00;73.50;;;;;;5029996;28;20368;-88
2022/01/07 07:39:28;;;;;;;;;;;-3270.00;73.50;;;;;;5003818;28;20410;-86
2022/01/07 07:41:54;;;;;;;48.97;20.70;;;-3270.10;73.60;;;;;;5018473;28;19928;-86
2022/01/07 07:44:19;;;;;;;65.13;25.23;;;-3270.20;73.30;;;;;;5017771;28;20034;-88
2022/01/07 07:46:45;;;;;;;;;;;-3270.20;73.40;;;;;;5015815;28;20103;-86
2022/01/07 07:49:10;;;;;;;54.80;24.87;;;-3270.30;73.50;;;;;;5031629;28;19906;-87
2022/01/07 07:51:36;;;;;;;44.23;21.20;;;-3270.30;73.30;;;;;;5002144;28;20028;-88
2022/01/07 07:54:04;;;;;;;56.77;22.43;;;-3270.40;73.30;;;;;;5005782;28;20203;-87
2022/01/07 07:56:31;;;;;;;52.43;24.67;;;-3270.50;73.40;;;;;;5005060;28;20265;-94
2022/01/07 07:58:58;;;;;;;55.43;21.63;;;-3270.50;73.40;;;;;;5010701;28;20037;-88
2022/01/07 08:01:24;;;;;;;54.13;23.10;;;-3270.60;73.50;;;;;;5015474;28;20264;-89
2022/01/07 08:03:50;;;;;;;71.83;24.87;;;-3270.70;73.60;;;;;;5006667;28;20026;-90
2022/01/07 08:06:16;;;;;;;53.67;22.37;;;-3270.70;73.60;;;;;;5008491;28;20029;-91
2022/01/07 08:08:42;;;;;;;56.53;22.67;;;-3270.80;73.60;;;;;;5005148;28;20034;-91
2022/01/07 08:11:10;;;;;;;;;;;-3270.90;73.60;;;;;;5011850;28;20383;-93
2022/01/07 08:16:23;;;;;;;62.37;25.33;;;-3271.00;73.40;;;;;;5027449;28;20403;-90
2022/01/07 08:18:50;;;;;;;57.17;25.57;;;-3271.20;73.50;;;;;;5016772;28;20022;-91
2022/01/07 08:21:19;;;;;;;59.40;25.67;;;-3271.20;73.50;;;;;;5018296;28;20044;-91
2022/01/07 08:23:46;;;;;;;57.87;25.97;;;-3271.30;73.60;;;;;;5014724;28;20437;-90
2022/01/07 08:26:14;;;;;;;54.03;24.27;;;-3271.40;73.70;;;;;;5030315;28;20178;-90
2022/01/07 08:28:55;;;;;;;55.37;21.73;;;-3271.50;73.70;;;;;;5007143;28;20094;-91
2022/01/07 08:36:40;;;;;;;73.47;27.33;;;-3271.80;73.80;;;;;;5027300;28;20080;-90
2022/01/07 08:39:06;;;;;;;;;;;-3271.90;73.80;;;;;;5003327;28;20029;-91
2022/01/07 08:41:33;;;;;;;52.67;21.98;;;-3272.00;73.90;;;;;;5039248;28;19921;-91
2022/01/07 08:43:59;;;;;;;58.27;22.37;;;-3272.20;73.70;;;;;;5011033;28;20005;-90
2022/01/07 08:46:25;;;;;;;;;;;-3272.30;73.80;;;;;;5034375;28;20574;-90
2022/01/07 08:48:50;;;;;;;69.60;24.77;;;-3272.40;73.90;;;;;;5048880;28;19909;-90
2022/01/07 08:51:19;;;;;;;;;;;-3272.50;73.70;;;;;;5012351;28;20056;-89
2022/01/07 08:53:44;;;;;;;68.07;25.80;;;-3272.60;73.80;;;;;;5031970;28;19913;-91
2022/01/07 08:56:10;;;;;;;;;;;-3272.70;73.60;;;;;;5019523;28;20029;-92
2022/01/07 08:58:36;;;;;;;59.37;24.43;;;-3272.80;73.70;;;;;;5041938;28;19948;-91
2022/01/07 09:01:01;;;;;;;;;;;-3272.90;73.60;;;;;;5015868;28;20049;-91
2022/01/07 09:03:27;;;;;;;42.10;18.00;;;-3273.00;73.70;;;;;;5049696;28;20342;-90
2022/01/07 09:05:52;;;;;;;;;;;-3273.10;73.70;;;;;;5018075;28;20034;-90
2022/01/07 09:08:18;;;;;;;37.53;16.77;;;-3273.20;73.80;;;;;;5050390;28;20000;-91
2022/01/07 09:10:43;;;;;;;;;;;-3273.30;73.70;;;;;;5013351;28;20034;-91
2022/01/07 09:13:10;;;;;;;44.60;17.60;;;-3273.40;73.80;;;;;;5049210;28;19917;-92
2022/01/07 09:15:36;;;;;;;45.27;18.97;;;-3273.50;73.60;;;;;;5005958;28;20041;-90
2022/01/07 09:18:09;;;;;;;50.43;18.83;;;-3273.60;73.80;;;;;;5017152;28;20033;-91
2022/01/07 09:20:36;;;;;;;52.33;19.93;;;-3273.70;73.90;;;;;;5009709;28;20483;-91
2022/01/07 09:23:02;;;;;;;48.10;19.03;;;-3273.70;74.00;;;;;;5012080;28;20061;-92
2022/01/07 09:25:27;;;;;;;;;;;-3273.80;74.10;;;;;;5016199;28;20018;-87
2022/01/07 09:27:53;;;;;;;40.40;16.80;;;-3274.00;74.20;;;;;;5044281;28;19945;-87
2022/01/07 09:30:19;;;;;;;41.97;17.27;;;-3274.10;73.90;;;;;;5007983;28;20033;-87
2022/01/07 09:32:44;;;;;;;;;;;-3274.20;73.90;;;;;;5029065;28;20378;-88
2022/01/07 09:35:11;;;;;;;42.87;14.30;;;-3274.30;74.00;;;;;;5051689;28;19951;-89
2022/01/07 09:37:37;;;;;;;33.03;14.87;;;-3274.40;73.70;;;;;;5018281;28;20363;-90
2022/01/07 09:40:03;;;;;;;;;;;-3274.50;73.80;;;;;;5005481;28;20031;-89
2022/01/07 09:42:28;;;;;;;37.00;15.37;;;-3274.70;73.80;;;;;;5041252;28;19909;-88
2022/01/07 09:44:55;;;;;;;;;;;-3274.80;73.50;;;;;;5017046;28;20478;-88
2022/01/07 09:47:21;;;;;;;36.38;14.05;;;-3274.90;73.60;;;;;;5055820;28;19928;-88
2022/01/07 09:49:47;;;;;;;21.35;9.18;;;-3275.00;73.40;;;;;;5022801;28;20036;-88
2022/01/07 09:52:12;;;;;;;;;;;-3275.20;73.40;;;;;;5020070;28;20030;-89
2022/01/07 09:54:39;;;;;;;17.67;8.10;;;-3275.30;73.40;;;;;;5044388;28;20285;-88
2022/01/07 09:57:06;;;;;;;24.27;9.20;;;-3275.50;73.00;;;;;;5014594;28;20028;-88
2022/01/07 09:59:36;;;;;;;22.30;8.63;;;-3275.60;72.90;;;;;;5003750;28;20091;-89
2022/01/07 10:02:05;;;;;;;21.20;9.73;;;-3275.70;72.80;;;;;;5014963;28;20414;-89
2022/01/07 10:04:33;;;;;;;21.67;11.13;;;-3275.80;72.60;;;;;;5035960;28;20433;-89
2022/01/07 10:07:11;;;;;;;22.40;9.20;;;-3276.00;72.40;;;;;;5011394;28;20116;-89
2022/01/07 10:09:39;;;;;;;19.53;7.37;;;-3276.60;72.00;;;;;;5035474;28;20024;-89
2022/01/07 10:12:06;;;;;;;24.07;7.20;;;0.60;71.00;;;;;;5017240;28;20029;-89
2022/01/07 10:14:32;;;;;;;21.37;8.10;;;1.70;68.60;;;;;;5019478;28;20092;-89
2022/01/07 10:16:59;;;;;;;;;;;2.90;66.30;;;;;;5014144;28;20029;-86
2022/01/07 10:19:41;;;;;;;22.52;7.68;;;4.00;64.70;;;;;;5040272;28;19915;-95
2022/01/07 10:22:08;;;;;;;19.67;8.03;;;5.30;63.20;;;;;;5006341;28;20021;-87
2022/01/07 10:24:57;;;;;;;21.77;8.40;;;6.40;60.90;;;;;;5019125;28;20033;-88
2022/01/07 10:27:26;;;;;;;22.83;8.47;;;7.70;58.20;;;;;;5018287;28;20068;-90
2022/01/07 10:30:26;;;;;;;19.67;9.13;;;8.80;56.90;;;;;;5009153;28;20030;-91
2022/01/07 10:32:53;;;;;;;19.50;8.48;;;9.90;53.70;;;;;;5035643;28;20056;-90
2022/01/07 10:35:21;;;;;;;19.38;8.45;;;10.90;53.00;;;;;;5022921;28;20473;-89
2022/01/07 10:37:56;;;;;;;23.15;10.25;;;11.80;50.70;;;;;;5014998;28;20013;-89
2022/01/07 10:40:31;;;;;;;18.38;8.90;;;12.60;48.30;;;;;;5014988;28;20033;-90
2022/01/07 10:43:33;;;;;;;20.75;10.50;;;13.20;45.70;;;;;;5034139;28;20025;-90
2022/01/07 10:46:01;;;;;;;24.55;12.13;;;13.60;43.40;;;;;;4991792;28;20076;-89
2022/01/07 10:48:41;;;;;;;31.58;15.60;;;14.00;43.20;;;;;;5014171;28;20061;-90
2022/01/07 10:51:13;;;;;;;19.27;9.73;;;14.30;40.70;;;;;;5010220;28;20513;-91
2022/01/07 10:53:38;;;;;;;20.02;9.98;;;14.50;41.10;;;;;;5011691;28;20018;-91
2022/01/07 10:56:21;;;;;;;18.95;8.88;;;14.80;40.40;;;;;;5021445;28;20022;-90
2022/01/07 10:58:47;;;;;;;20.45;9.35;;;15.00;37.90;;;;;;5021256;28;20037;-91
2022/01/07 11:01:21;;;;;;;22.27;9.30;;;14.90;38.80;;;;;;5010319;28;20037;-90
2022/01/07 11:04:05;;;;;;;22.35;10.07;;;14.40;37.50;;;;;;5012110;28;20033;-88
2022/01/07 11:06:31;;;;;;;26.58;10.30;;;13.90;37.90;;;;;;5006479;28;20049;-90
2022/01/07 11:08:58;;;;;;;21.88;9.88;;;13.40;38.80;;;;;;5009205;28;20029;-90
2022/01/07 11:11:26;;;;;;;19.05;10.32;;;13.10;38.50;;;;;;5010378;28;20021;-89
2022/01/07 11:13:52;;;;;;;18.55;8.75;;;12.60;38.50;;;;;;5013869;28;20056;-89
2022/01/07 11:16:18;;;;;;;;;;;12.20;38.50;;;;;;5003719;28;20022;-90
2022/01/07 11:18:46;;;;;;;17.45;7.97;;;11.80;39.20;;;;;;5044956;28;20409;-90
2022/01/07 11:21:12;;;;;;;27.15;12.57;;;11.50;39.10;;;;;;5010127;28;20403;-89
2022/01/07 11:23:41;;;;;;;26.58;12.25;;;11.20;38.60;;;;;;5038870;28;20026;-90
2022/01/07 11:26:09;;;;;;;16.67;8.57;;;10.80;38.80;;;;;;5018210;28;20045;-91
2022/01/07 11:28:36;;;;;;;21.67;8.50;;;10.30;39.00;;;;;;5020615;28;20081;-87
2022/01/07 11:31:13;;;;;;;19.83;8.20;;;9.80;39.10;;;;;;4994865;28;20496;-89
2022/01/07 11:33:40;;;;;;;19.33;8.07;;;9.60;38.60;;;;;;5009460;28;20048;-90
2022/01/07 11:36:11;;;;;;;31.90;16.13;;;9.50;38.90;;;;;;5013763;28;20026;-87
2022/01/07 11:38:44;;;;;;;19.10;8.15;;;9.70;38.40;;;;;;5010187;28;20021;-90
2022/01/07 11:41:35;;;;;;;19.90;9.63;;;10.00;37.80;;;;;;5012423;28;20037;-89
2022/01/07 11:44:14;;;;;;;19.95;9.55;;;10.10;37.90;;;;;;5011666;28;20026;-90
2022/01/07 11:46:39;;;;;;;19.10;9.40;;;10.20;37.80;;;;;;5011294;28;20025;-89
2022/01/07 11:49:05;;;;;;;;;;;9.90;38.10;;;;;;5008739;28;20493;-90
2022/01/07 11:51:41;;;;;;;17.50;8.20;;;9.70;38.70;;;;;;5045189;28;19917;-90
2022/01/07 11:54:09;;;;;;;18.80;8.32;;;9.50;38.40;;;;;;5012383;28;20112;-90
2022/01/07 11:56:37;;;;;;;17.83;7.63;;;9.30;38.70;;;;;;5009340;28;20022;-89
2022/01/07 11:59:14;;;;;;;17.98;8.05;;;8.90;38.70;;;;;;5009997;28;20032;-90
2022/01/07 12:01:40;;;;;;;14.80;8.40;;;8.70;38.40;;;;;;5005001;28;20041;-90
2022/01/07 12:04:15;;;;;;;;;;;8.40;38.80;;;;;;5009376;28;20030;-90
2022/01/07 12:06:41;;;;;;;16.35;6.75;;;8.30;39.10;;;;;;5037543;28;19999;-90
2022/01/07 12:09:16;;;;;;;;;;;8.30;39.10;;;;;;5017209;28;20433;-90
2022/01/07 12:11:45;;;;;;;17.45;6.43;;;8.50;39.20;;;;;;5036336;28;19916;-91
2022/01/07 12:14:15;;;;;;;18.23;6.65;;;8.60;38.70;;;;;;5012411;28;20033;-91
2022/01/07 12:16:43;;;;;;;19.58;7.43;;;8.80;38.30;;;;;;5018822;28;20084;-91
2022/01/07 12:19:18;;;;;;;18.27;7.28;;;8.70;37.90;;;;;;5005788;28;20088;-91
2022/01/07 12:21:55;;;;;;;14.57;7.53;;;8.80;37.60;;;;;;5028671;28;20033;-90
2022/01/07 12:24:25;;;;;;;16.88;6.72;;;9.10;37.20;;;;;;5013828;28;20029;-90
2022/01/07 12:27:09;;;;;;;14.68;6.57;;;9.70;36.70;;;;;;5011334;28;20025;-90
2022/01/07 12:29:38;;;;;;;17.15;6.10;;;10.80;35.20;;;;;;5012201;28;20030;-89
2022/01/07 12:32:05;;;;;;;15.05;6.70;;;11.80;34.30;;;;;;5004686;28;19998;-89
2022/01/07 12:34:37;;;;;;;11.63;5.95;;;12.80;33.40;;;;;;5010709;28;20022;-88
2022/01/07 12:37:05;;;;;;;11.82;5.97;;;13.70;32.30;;;;;;5019393;28;20025;-91
2022/01/07 12:39:33;;;;;;;14.52;7.43;;;14.30;31.90;;;;;;5010631;28;20025;-89